sensor_id;sensor_type;location;lat;lon;timestamp;temperature;humidity
6291;DHT22;3178;48.730;8.990;2022-12-24T00:01:08;9.40;99.90
6291;DHT22;3178;48.730;8.990;2022-12-24T00:03:35;9.50;99.90
6291;DHT22;3178;48.730;8.990;2022-12-24T00:06:17;9.50;99.90
6291;DHT22;3178;48.730;8.990;2022-12-24T00:08:43;9.50;99.90
6291;DHT22;3178;48.730;8.990;2022-12-24T00:11:08;9.60;99.90
6291;DHT22;3178;48.730;8.990;2022-12-24T00:13:34;9.60;99.90
6291;DHT22;3178;48.730;8.990;2022-12-24T00:16:00;9.60;99.90
6291;DHT22;3178;48.730;8.990;2022-12-24T00:18:26;9.60;99.90
6291;DHT22;3178;48.730;8.990;2022-12-24T00:20:52;9.60;99.90
6291;DHT22;3178;48.730;8.990;2022-12-24T00:23:18;9.60;99.90
6291;DHT22;3178;48.730;8.990;2022-12-24T00:25:45;9.60;99.90
6291;DHT22;3178;48.730;8.990;2022-12-24T00:28:11;9.70;99.90
6291;DHT22;3178;48.730;8.990;2022-12-24T00:30:37;9.70;99.90
6291;DHT22;3178;48.730;8.990;2022-12-24T00:33:03;9.70;99.90
6291;DHT22;3178;48.730;8.990;2022-12-24T00:35:29;9.70;99.90
6291;DHT22;3178;48.730;8.990;2022-12-24T00:37:55;9.70;99.90
6291;DHT22;3178;48.730;8.990;2022-12-24T00:40:20;9.70;99.90
6291;DHT22;3178;48.730;8.990;2022-12-24T00:42:46;9.70;99.90
6291;DHT22;3178;48.730;8.990;2022-12-24T00:45:11;9.70;99.90
6291;DHT22;3178;48.730;8.990;2022-12-24T00:47:37;9.70;99.90
6291;DHT22;3178;48.730;8.990;2022-12-24T00:50:04;9.70;99.90
6291;DHT22;3178;48.730;8.990;2022-12-24T00:52:30;9.60;99.90
6291;DHT22;3178;48.730;8.990;2022-12-24T00:54:55;9.60;99.90
6291;DHT22;3178;48.730;8.990;2022-12-24T00:57:21;9.60;99.90
6291;DHT22;3178;48.730;8.990;2022-12-24T00:59:46;9.50;99.90
6291;DHT22;3178;48.730;8.990;2022-12-24T01:02:12;9.50;99.90
6291;DHT22;3178;48.730;8.990;2022-12-24T01:04:37;9.50;99.90
6291;DHT22;3178;48.730;8.990;2022-12-24T01:07:21;9.50;99.90
6291;DHT22;3178;48.730;8.990;2022-12-24T01:09:47;9.50;99.90
6291;DHT22;3178;48.730;8.990;2022-12-24T01:12:12;9.50;99.90
6291;DHT22;3178;48.730;8.990;2022-12-24T01:14:38;9.50;99.90
6291;DHT22;3178;48.730;8.990;2022-12-24T01:17:03;9.40;99.90
6291;DHT22;3178;48.730;8.990;2022-12-24T01:19:29;9.40;99.90
6291;DHT22;3178;48.730;8.990;2022-12-24T01:21:54;9.40;99.90
6291;DHT22;3178;48.730;8.990;2022-12-24T01:24:20;9.30;99.90
6291;DHT22;3178;48.730;8.990;2022-12-24T01:26:46;9.30;99.90
6291;DHT22;3178;48.730;8.990;2022-12-24T01:29:11;9.30;99.90
6291;DHT22;3178;48.730;8.990;2022-12-24T01:31:37;9.30;99.90
6291;DHT22;3178;48.730;8.990;2022-12-24T01:34:03;9.30;99.90
6291;DHT22;3178;48.730;8.990;2022-12-24T01:36:28;9.30;99.90
6291;DHT22;3178;48.730;8.990;2022-12-24T01:38:54;9.20;99.90
6291;DHT22;3178;48.730;8.990;2022-12-24T01:41:22;9.20;99.90
6291;DHT22;3178;48.730;8.990;2022-12-24T01:46:52;9.20;99.90
6291;DHT22;3178;48.730;8.990;2022-12-24T01:49:19;9.20;99.90
6291;DHT22;3178;48.730;8.990;2022-12-24T01:52:06;9.20;99.90
6291;DHT22;3178;48.730;8.990;2022-12-24T01:54:44;9.20;99.90
6291;DHT22;3178;48.730;8.990;2022-12-24T01:57:42;9.30;99.90
6291;DHT22;3178;48.730;8.990;2022-12-24T02:00:11;9.30;99.90
6291;DHT22;3178;48.730;8.990;2022-12-24T02:02:41;9.30;99.90
6291;DHT22;3178;48.730;8.990;2022-12-24T02:05:25;9.30;99.90
6291;DHT22;3178;48.730;8.990;2022-12-24T02:07:52;9.30;99.90
6291;DHT22;3178;48.730;8.990;2022-12-24T02:10:18;9.30;99.90
6291;DHT22;3178;48.730;8.990;2022-12-24T02:12:44;9.30;99.90
6291;DHT22;3178;48.730;8.990;2022-12-24T02:15:12;9.30;99.90
6291;DHT22;3178;48.730;8.990;2022-12-24T02:20:50;9.30;99.90
6291;DHT22;3178;48.730;8.990;2022-12-24T02:23:56;9.30;99.90
6291;DHT22;3178;48.730;8.990;2022-12-24T02:26:53;9.20;99.90
6291;DHT22;3178;48.730;8.990;2022-12-24T02:32:32;9.30;99.90
6291;DHT22;3178;48.730;8.990;2022-12-24T02:37:51;9.30;99.90
6291;DHT22;3178;48.730;8.990;2022-12-24T02:40:22;9.30;99.90
6291;DHT22;3178;48.730;8.990;2022-12-24T02:42:54;9.30;99.90
6291;DHT22;3178;48.730;8.990;2022-12-24T02:45:24;9.30;99.90
6291;DHT22;3178;48.730;8.990;2022-12-24T02:47:51;9.30;99.90
6291;DHT22;3178;48.730;8.990;2022-12-24T02:50:18;9.30;99.90
6291;DHT22;3178;48.730;8.990;2022-12-24T02:52:45;9.30;99.90
6291;DHT22;3178;48.730;8.990;2022-12-24T02:55:22;9.30;99.90
6291;DHT22;3178;48.730;8.990;2022-12-24T02:58:15;9.20;99.90
6291;DHT22;3178;48.730;8.990;2022-12-24T03:00:58;9.20;99.90
6291;DHT22;3178;48.730;8.990;2022-12-24T03:12:42;9.20;99.90
6291;DHT22;3178;48.730;8.990;2022-12-24T03:15:10;9.20;99.90
6291;DHT22;3178;48.730;8.990;2022-12-24T03:17:38;9.10;99.90
6291;DHT22;3178;48.730;8.990;2022-12-24T03:20:08;9.00;99.90
6291;DHT22;3178;48.730;8.990;2022-12-24T03:22:35;9.10;99.90
6291;DHT22;3178;48.730;8.990;2022-12-24T03:25:02;9.10;99.90
6291;DHT22;3178;48.730;8.990;2022-12-24T03:27:29;9.10;99.90
6291;DHT22;3178;48.730;8.990;2022-12-24T03:29:57;9.00;99.90
6291;DHT22;3178;48.730;8.990;2022-12-24T03:32:26;9.00;99.90
6291;DHT22;3178;48.730;8.990;2022-12-24T03:34:52;8.90;99.90
6291;DHT22;3178;48.730;8.990;2022-12-24T03:37:18;8.80;99.90
6291;DHT22;3178;48.730;8.990;2022-12-24T03:39:43;8.80;99.90
6291;DHT22;3178;48.730;8.990;2022-12-24T03:42:09;8.80;99.90
6291;DHT22;3178;48.730;8.990;2022-12-24T03:44:34;8.80;99.90
6291;DHT22;3178;48.730;8.990;2022-12-24T03:47:00;8.80;99.90
6291;DHT22;3178;48.730;8.990;2022-12-24T03:49:25;8.80;99.90
6291;DHT22;3178;48.730;8.990;2022-12-24T03:51:51;8.80;99.90
6291;DHT22;3178;48.730;8.990;2022-12-24T03:54:17;8.80;99.90
6291;DHT22;3178;48.730;8.990;2022-12-24T03:56:42;8.80;99.90
6291;DHT22;3178;48.730;8.990;2022-12-24T03:59:08;8.80;99.90
6291;DHT22;3178;48.730;8.990;2022-12-24T04:01:33;8.70;99.90
6291;DHT22;3178;48.730;8.990;2022-12-24T04:03:59;8.70;99.90
6291;DHT22;3178;48.730;8.990;2022-12-24T04:06:24;8.80;99.90
6291;DHT22;3178;48.730;8.990;2022-12-24T04:08:50;8.80;99.90
6291;DHT22;3178;48.730;8.990;2022-12-24T04:11:16;8.80;99.90
6291;DHT22;3178;48.730;8.990;2022-12-24T04:13:42;8.80;99.90
6291;DHT22;3178;48.730;8.990;2022-12-24T04:16:10;8.80;99.90
6291;DHT22;3178;48.730;8.990;2022-12-24T04:18:37;8.70;99.90
6291;DHT22;3178;48.730;8.990;2022-12-24T04:21:03;8.70;99.90
6291;DHT22;3178;48.730;8.990;2022-12-24T04:23:30;8.70;99.90
6291;DHT22;3178;48.730;8.990;2022-12-24T04:25:59;8.70;99.90
6291;DHT22;3178;48.730;8.990;2022-12-24T04:28:25;8.80;99.90
6291;DHT22;3178;48.730;8.990;2022-12-24T04:30:50;8.80;99.90
6291;DHT22;3178;48.730;8.990;2022-12-24T04:33:16;8.80;99.90
6291;DHT22;3178;48.730;8.990;2022-12-24T04:35:42;8.80;99.90
6291;DHT22;3178;48.730;8.990;2022-12-24T04:38:08;8.80;99.90
6291;DHT22;3178;48.730;8.990;2022-12-24T04:40:34;8.80;99.90
6291;DHT22;3178;48.730;8.990;2022-12-24T04:43:00;8.80;99.90
6291;DHT22;3178;48.730;8.990;2022-12-24T04:45:26;8.70;99.90
6291;DHT22;3178;48.730;8.990;2022-12-24T04:47:51;8.80;99.90
6291;DHT22;3178;48.730;8.990;2022-12-24T04:50:17;8.80;99.90
6291;DHT22;3178;48.730;8.990;2022-12-24T04:52:42;8.70;99.90
6291;DHT22;3178;48.730;8.990;2022-12-24T04:55:08;8.70;99.90
6291;DHT22;3178;48.730;8.990;2022-12-24T04:57:34;8.70;99.90
6291;DHT22;3178;48.730;8.990;2022-12-24T05:00:00;8.70;99.90
6291;DHT22;3178;48.730;8.990;2022-12-24T05:02:26;8.70;99.90
6291;DHT22;3178;48.730;8.990;2022-12-24T05:04:52;8.80;99.90
6291;DHT22;3178;48.730;8.990;2022-12-24T05:07:20;8.70;99.90
6291;DHT22;3178;48.730;8.990;2022-12-24T05:09:46;8.80;99.90
6291;DHT22;3178;48.730;8.990;2022-12-24T05:12:11;8.80;99.90
6291;DHT22;3178;48.730;8.990;2022-12-24T05:14:38;8.80;99.90
6291;DHT22;3178;48.730;8.990;2022-12-24T05:17:04;8.80;99.90
6291;DHT22;3178;48.730;8.990;2022-12-24T05:19:29;8.80;99.90
6291;DHT22;3178;48.730;8.990;2022-12-24T05:21:55;8.80;99.90
6291;DHT22;3178;48.730;8.990;2022-12-24T05:24:39;8.80;99.90
6291;DHT22;3178;48.730;8.990;2022-12-24T05:27:23;8.90;99.90
6291;DHT22;3178;48.730;8.990;2022-12-24T05:29:48;8.90;99.90
6291;DHT22;3178;48.730;8.990;2022-12-24T05:32:14;8.90;99.90
6291;DHT22;3178;48.730;8.990;2022-12-24T05:34:39;8.90;99.90
6291;DHT22;3178;48.730;8.990;2022-12-24T05:37:05;8.80;99.90
6291;DHT22;3178;48.730;8.990;2022-12-24T05:39:30;8.80;99.90
6291;DHT22;3178;48.730;8.990;2022-12-24T05:41:56;8.70;99.90
6291;DHT22;3178;48.730;8.990;2022-12-24T05:44:21;8.70;99.90
6291;DHT22;3178;48.730;8.990;2022-12-24T05:46:47;8.70;99.90
6291;DHT22;3178;48.730;8.990;2022-12-24T05:49:13;8.60;99.90
6291;DHT22;3178;48.730;8.990;2022-12-24T05:51:38;8.60;99.90
6291;DHT22;3178;48.730;8.990;2022-12-24T05:54:06;8.60;99.90
6291;DHT22;3178;48.730;8.990;2022-12-24T05:56:32;8.50;99.90
6291;DHT22;3178;48.730;8.990;2022-12-24T05:58:58;8.50;99.90
6291;DHT22;3178;48.730;8.990;2022-12-24T06:01:24;8.50;99.90
6291;DHT22;3178;48.730;8.990;2022-12-24T06:03:51;8.50;99.90
6291;DHT22;3178;48.730;8.990;2022-12-24T06:06:20;8.50;99.90
6291;DHT22;3178;48.730;8.990;2022-12-24T06:08:46;8.40;99.90
6291;DHT22;3178;48.730;8.990;2022-12-24T06:11:14;8.40;99.90
6291;DHT22;3178;48.730;8.990;2022-12-24T06:13:40;8.40;99.90
6291;DHT22;3178;48.730;8.990;2022-12-24T06:16:08;8.40;99.90
6291;DHT22;3178;48.730;8.990;2022-12-24T06:18:35;8.40;99.90
6291;DHT22;3178;48.730;8.990;2022-12-24T06:21:01;8.40;99.90
6291;DHT22;3178;48.730;8.990;2022-12-24T06:23:32;8.40;99.90
6291;DHT22;3178;48.730;8.990;2022-12-24T06:25:59;8.40;99.90
6291;DHT22;3178;48.730;8.990;2022-12-24T06:28:26;8.30;99.90
6291;DHT22;3178;48.730;8.990;2022-12-24T06:30:52;8.30;99.90
6291;DHT22;3178;48.730;8.990;2022-12-24T06:33:18;8.20;99.90
6291;DHT22;3178;48.730;8.990;2022-12-24T06:35:44;8.30;99.90
6291;DHT22;3178;48.730;8.990;2022-12-24T06:38:10;8.20;99.90
6291;DHT22;3178;48.730;8.990;2022-12-24T06:40:40;8.20;99.90
6291;DHT22;3178;48.730;8.990;2022-12-24T06:43:05;8.20;99.90
6291;DHT22;3178;48.730;8.990;2022-12-24T06:45:31;8.20;99.90
6291;DHT22;3178;48.730;8.990;2022-12-24T06:47:57;8.20;99.90
6291;DHT22;3178;48.730;8.990;2022-12-24T06:50:23;8.20;99.90
6291;DHT22;3178;48.730;8.990;2022-12-24T06:52:48;8.30;99.90
6291;DHT22;3178;48.730;8.990;2022-12-24T06:55:14;8.30;99.90
6291;DHT22;3178;48.730;8.990;2022-12-24T06:57:40;8.30;99.90
6291;DHT22;3178;48.730;8.990;2022-12-24T07:00:07;8.30;99.90
6291;DHT22;3178;48.730;8.990;2022-12-24T07:02:33;8.30;99.90
6291;DHT22;3178;48.730;8.990;2022-12-24T07:04:58;8.30;99.90
6291;DHT22;3178;48.730;8.990;2022-12-24T07:07:24;8.30;99.90
6291;DHT22;3178;48.730;8.990;2022-12-24T07:09:49;8.30;99.90
6291;DHT22;3178;48.730;8.990;2022-12-24T07:12:15;8.30;99.90
6291;DHT22;3178;48.730;8.990;2022-12-24T07:14:40;8.30;99.90
6291;DHT22;3178;48.730;8.990;2022-12-24T07:17:06;8.30;99.90
6291;DHT22;3178;48.730;8.990;2022-12-24T07:19:31;8.30;99.90
6291;DHT22;3178;48.730;8.990;2022-12-24T07:21:58;8.20;99.90
6291;DHT22;3178;48.730;8.990;2022-12-24T07:24:24;8.20;99.90
6291;DHT22;3178;48.730;8.990;2022-12-24T07:26:49;8.20;99.90
6291;DHT22;3178;48.730;8.990;2022-12-24T07:29:15;8.20;99.90
6291;DHT22;3178;48.730;8.990;2022-12-24T07:31:40;8.20;99.90
6291;DHT22;3178;48.730;8.990;2022-12-24T07:34:06;8.20;99.90
6291;DHT22;3178;48.730;8.990;2022-12-24T07:36:31;8.20;99.90
6291;DHT22;3178;48.730;8.990;2022-12-24T07:38:57;8.20;99.90
6291;DHT22;3178;48.730;8.990;2022-12-24T07:41:23;8.20;99.90
6291;DHT22;3178;48.730;8.990;2022-12-24T07:43:48;8.20;99.90
6291;DHT22;3178;48.730;8.990;2022-12-24T07:46:14;8.20;99.90
6291;DHT22;3178;48.730;8.990;2022-12-24T07:48:39;8.20;99.90
6291;DHT22;3178;48.730;8.990;2022-12-24T07:51:05;8.20;99.90
6291;DHT22;3178;48.730;8.990;2022-12-24T07:53:30;8.30;99.90
6291;DHT22;3178;48.730;8.990;2022-12-24T07:55:57;8.30;99.90
6291;DHT22;3178;48.730;8.990;2022-12-24T07:58:23;8.30;99.90
6291;DHT22;3178;48.730;8.990;2022-12-24T08:00:48;8.30;99.90
6291;DHT22;3178;48.730;8.990;2022-12-24T08:03:20;8.40;99.90
6291;DHT22;3178;48.730;8.990;2022-12-24T08:05:46;8.40;99.90
6291;DHT22;3178;48.730;8.990;2022-12-24T08:08:12;8.40;99.90
6291;DHT22;3178;48.730;8.990;2022-12-24T08:10:38;8.50;99.90
6291;DHT22;3178;48.730;8.990;2022-12-24T08:13:04;8.50;99.90
6291;DHT22;3178;48.730;8.990;2022-12-24T08:15:30;8.50;99.90
6291;DHT22;3178;48.730;8.990;2022-12-24T08:17:55;8.50;99.90
6291;DHT22;3178;48.730;8.990;2022-12-24T08:20:21;8.50;99.90
6291;DHT22;3178;48.730;8.990;2022-12-24T08:22:46;8.60;99.90
6291;DHT22;3178;48.730;8.990;2022-12-24T08:25:12;8.60;99.90
6291;DHT22;3178;48.730;8.990;2022-12-24T08:27:37;8.60;99.90
6291;DHT22;3178;48.730;8.990;2022-12-24T08:30:04;8.70;99.90
6291;DHT22;3178;48.730;8.990;2022-12-24T08:32:30;8.70;99.90
6291;DHT22;3178;48.730;8.990;2022-12-24T08:34:55;8.70;99.90
6291;DHT22;3178;48.730;8.990;2022-12-24T08:37:21;8.80;99.90
6291;DHT22;3178;48.730;8.990;2022-12-24T08:39:47;8.80;99.90
6291;DHT22;3178;48.730;8.990;2022-12-24T08:42:12;8.80;99.90
6291;DHT22;3178;48.730;8.990;2022-12-24T08:44:38;8.90;99.90
6291;DHT22;3178;48.730;8.990;2022-12-24T08:47:03;8.90;99.90
6291;DHT22;3178;48.730;8.990;2022-12-24T08:49:29;9.00;99.90
6291;DHT22;3178;48.730;8.990;2022-12-24T08:51:54;9.00;99.90
6291;DHT22;3178;48.730;8.990;2022-12-24T08:54:20;9.00;99.90
6291;DHT22;3178;48.730;8.990;2022-12-24T08:56:46;9.00;99.90
6291;DHT22;3178;48.730;8.990;2022-12-24T08:59:12;9.00;99.90
6291;DHT22;3178;48.730;8.990;2022-12-24T09:01:37;9.00;99.90
6291;DHT22;3178;48.730;8.990;2022-12-24T09:04:03;9.00;99.90
6291;DHT22;3178;48.730;8.990;2022-12-24T09:06:31;9.00;99.90
6291;DHT22;3178;48.730;8.990;2022-12-24T09:08:56;9.10;99.90
6291;DHT22;3178;48.730;8.990;2022-12-24T09:11:22;9.10;99.90
6291;DHT22;3178;48.730;8.990;2022-12-24T09:13:47;9.20;99.90
6291;DHT22;3178;48.730;8.990;2022-12-24T09:16:13;9.30;99.90
6291;DHT22;3178;48.730;8.990;2022-12-24T09:18:39;9.50;99.90
6291;DHT22;3178;48.730;8.990;2022-12-24T09:21:08;9.70;99.90
6291;DHT22;3178;48.730;8.990;2022-12-24T09:23:35;10.00;99.90
6291;DHT22;3178;48.730;8.990;2022-12-24T09:26:28;10.30;99.90
6291;DHT22;3178;48.730;8.990;2022-12-24T09:28:57;10.70;99.90
6291;DHT22;3178;48.730;8.990;2022-12-24T09:31:23;11.10;99.90
6291;DHT22;3178;48.730;8.990;2022-12-24T09:33:50;11.20;99.90
6291;DHT22;3178;48.730;8.990;2022-12-24T09:36:16;11.30;99.90
6291;DHT22;3178;48.730;8.990;2022-12-24T09:38:43;11.20;99.90
6291;DHT22;3178;48.730;8.990;2022-12-24T09:41:30;11.10;99.90
6291;DHT22;3178;48.730;8.990;2022-12-24T09:46:44;10.90;99.90
6291;DHT22;3178;48.730;8.990;2022-12-24T09:49:19;10.90;99.90
6291;DHT22;3178;48.730;8.990;2022-12-24T09:51:56;10.80;99.90
6291;DHT22;3178;48.730;8.990;2022-12-24T09:54:31;10.70;99.90
6291;DHT22;3178;48.730;8.990;2022-12-24T09:57:00;10.70;99.90
6291;DHT22;3178;48.730;8.990;2022-12-24T09:59:42;10.70;99.90
6291;DHT22;3178;48.730;8.990;2022-12-24T10:02:14;10.80;99.90
6291;DHT22;3178;48.730;8.990;2022-12-24T10:04:41;11.00;99.90
6291;DHT22;3178;48.730;8.990;2022-12-24T10:12:47;11.60;99.90
6291;DHT22;3178;48.730;8.990;2022-12-24T10:18:26;11.50;99.90
6291;DHT22;3178;48.730;8.990;2022-12-24T10:21:14;11.50;99.90
6291;DHT22;3178;48.730;8.990;2022-12-24T10:23:51;11.40;99.90
6291;DHT22;3178;48.730;8.990;2022-12-24T10:26:33;11.40;99.90
6291;DHT22;3178;48.730;8.990;2022-12-24T10:29:09;11.60;99.90
6291;DHT22;3178;48.730;8.990;2022-12-24T10:31:53;11.70;99.90
6291;DHT22;3178;48.730;8.990;2022-12-24T10:34:24;11.80;99.90
6291;DHT22;3178;48.730;8.990;2022-12-24T10:36:52;11.70;99.90
6291;DHT22;3178;48.730;8.990;2022-12-24T10:39:23;11.70;99.90
6291;DHT22;3178;48.730;8.990;2022-12-24T10:41:52;11.70;99.90
6291;DHT22;3178;48.730;8.990;2022-12-24T10:44:21;11.50;99.90
6291;DHT22;3178;48.730;8.990;2022-12-24T10:46:48;11.50;99.90
6291;DHT22;3178;48.730;8.990;2022-12-24T10:49:16;11.40;99.90
6291;DHT22;3178;48.730;8.990;2022-12-24T10:51:50;11.30;99.90
6291;DHT22;3178;48.730;8.990;2022-12-24T10:54:19;11.20;99.90
6291;DHT22;3178;48.730;8.990;2022-12-24T10:56:47;11.20;99.90
6291;DHT22;3178;48.730;8.990;2022-12-24T10:59:49;11.20;99.90
6291;DHT22;3178;48.730;8.990;2022-12-24T11:02:31;11.20;99.90
6291;DHT22;3178;48.730;8.990;2022-12-24T11:04:59;11.10;99.90
6291;DHT22;3178;48.730;8.990;2022-12-24T11:07:27;11.00;99.90
6291;DHT22;3178;48.730;8.990;2022-12-24T11:12:31;11.00;99.90
6291;DHT22;3178;48.730;8.990;2022-12-24T11:17:30;10.90;99.90
6291;DHT22;3178;48.730;8.990;2022-12-24T11:19:57;10.80;99.90
6291;DHT22;3178;48.730;8.990;2022-12-24T11:22:30;10.80;99.90
6291;DHT22;3178;48.730;8.990;2022-12-24T11:25:03;10.70;99.90
6291;DHT22;3178;48.730;8.990;2022-12-24T11:30:27;10.60;99.90
6291;DHT22;3178;48.730;8.990;2022-12-24T11:35:25;10.60;99.90
6291;DHT22;3178;48.730;8.990;2022-12-24T11:38:11;10.70;99.90
6291;DHT22;3178;48.730;8.990;2022-12-24T11:40:43;10.80;99.90
6291;DHT22;3178;48.730;8.990;2022-12-24T11:43:17;10.80;99.90
6291;DHT22;3178;48.730;8.990;2022-12-24T11:45:54;10.90;99.90
6291;DHT22;3178;48.730;8.990;2022-12-24T11:48:31;10.90;99.90
6291;DHT22;3178;48.730;8.990;2022-12-24T11:51:03;10.90;99.90
6291;DHT22;3178;48.730;8.990;2022-12-24T11:53:37;10.90;99.90
6291;DHT22;3178;48.730;8.990;2022-12-24T11:56:24;11.00;99.90
6291;DHT22;3178;48.730;8.990;2022-12-24T11:58:55;11.20;99.90
6291;DHT22;3178;48.730;8.990;2022-12-24T12:01:36;11.60;99.90
6291;DHT22;3178;48.730;8.990;2022-12-24T12:04:23;12.00;99.90
6291;DHT22;3178;48.730;8.990;2022-12-24T12:07:32;12.20;99.90
6291;DHT22;3178;48.730;8.990;2022-12-24T12:13:00;12.30;99.90
6291;DHT22;3178;48.730;8.990;2022-12-24T12:15:38;12.30;99.90
6291;DHT22;3178;48.730;8.990;2022-12-24T12:18:10;12.30;99.90
6291;DHT22;3178;48.730;8.990;2022-12-24T12:20:44;12.40;99.90
6291;DHT22;3178;48.730;8.990;2022-12-24T12:23:19;12.50;99.90
6291;DHT22;3178;48.730;8.990;2022-12-24T12:25:57;12.70;99.90
6291;DHT22;3178;48.730;8.990;2022-12-24T12:30:59;13.00;99.90
6291;DHT22;3178;48.730;8.990;2022-12-24T12:36:26;13.00;99.90
6291;DHT22;3178;48.730;8.990;2022-12-24T12:38:54;13.00;99.90
6291;DHT22;3178;48.730;8.990;2022-12-24T12:47:10;13.00;99.90
6291;DHT22;3178;48.730;8.990;2022-12-24T12:57:40;12.40;99.90
6291;DHT22;3178;48.730;8.990;2022-12-24T13:00:10;12.20;99.90
6291;DHT22;3178;48.730;8.990;2022-12-24T13:02:59;12.10;99.90
6291;DHT22;3178;48.730;8.990;2022-12-24T13:11:39;11.80;99.90
6291;DHT22;3178;48.730;8.990;2022-12-24T13:20:28;11.60;99.90
6291;DHT22;3178;48.730;8.990;2022-12-24T13:23:16;11.60;99.90
6291;DHT22;3178;48.730;8.990;2022-12-24T13:25:45;11.70;99.90
6291;DHT22;3178;48.730;8.990;2022-12-24T13:36:06;12.00;99.90
6291;DHT22;3178;48.730;8.990;2022-12-24T13:38:34;12.10;99.90
6291;DHT22;3178;48.730;8.990;2022-12-24T13:49:31;12.00;99.90
6291;DHT22;3178;48.730;8.990;2022-12-24T13:52:17;12.00;99.90
6291;DHT22;3178;48.730;8.990;2022-12-24T13:54:47;11.90;99.90
6291;DHT22;3178;48.730;8.990;2022-12-24T14:02:55;11.70;99.90
6291;DHT22;3178;48.730;8.990;2022-12-24T14:05:49;11.70;99.90
6291;DHT22;3178;48.730;8.990;2022-12-24T14:08:44;11.70;99.90
6291;DHT22;3178;48.730;8.990;2022-12-24T14:11:20;11.70;99.90
6291;DHT22;3178;48.730;8.990;2022-12-24T14:16:18;11.60;99.90
6291;DHT22;3178;48.730;8.990;2022-12-24T14:19:00;11.60;99.90
6291;DHT22;3178;48.730;8.990;2022-12-24T14:21:29;11.60;99.90
6291;DHT22;3178;48.730;8.990;2022-12-24T14:24:05;11.50;99.90
6291;DHT22;3178;48.730;8.990;2022-12-24T14:26:34;11.40;99.90
6291;DHT22;3178;48.730;8.990;2022-12-24T14:31:53;11.40;99.90
6291;DHT22;3178;48.730;8.990;2022-12-24T14:34:19;11.30;99.90
6291;DHT22;3178;48.730;8.990;2022-12-24T14:36:45;11.30;99.90
6291;DHT22;3178;48.730;8.990;2022-12-24T14:39:21;11.30;99.90
6291;DHT22;3178;48.730;8.990;2022-12-24T14:41:50;11.30;99.90
6291;DHT22;3178;48.730;8.990;2022-12-24T14:44:30;11.30;99.90
6291;DHT22;3178;48.730;8.990;2022-12-24T14:47:05;11.20;99.90
6291;DHT22;3178;48.730;8.990;2022-12-24T14:52:22;11.20;99.90
6291;DHT22;3178;48.730;8.990;2022-12-24T14:54:51;11.10;99.90
6291;DHT22;3178;48.730;8.990;2022-12-24T14:59:56;11.00;99.90
6291;DHT22;3178;48.730;8.990;2022-12-24T15:05:19;10.90;99.90
6291;DHT22;3178;48.730;8.990;2022-12-24T15:07:54;10.90;99.90
6291;DHT22;3178;48.730;8.990;2022-12-24T15:12:56;10.80;99.90
6291;DHT22;3178;48.730;8.990;2022-12-24T15:15:23;10.70;99.90
6291;DHT22;3178;48.730;8.990;2022-12-24T15:17:49;10.70;99.90
6291;DHT22;3178;48.730;8.990;2022-12-24T15:20:17;10.60;99.90
6291;DHT22;3178;48.730;8.990;2022-12-24T15:22:45;10.60;99.90
6291;DHT22;3178;48.730;8.990;2022-12-24T15:25:24;10.50;99.90
6291;DHT22;3178;48.730;8.990;2022-12-24T15:27:50;10.50;99.90
6291;DHT22;3178;48.730;8.990;2022-12-24T15:30:19;10.40;99.90
6291;DHT22;3178;48.730;8.990;2022-12-24T15:32:56;10.40;99.90
6291;DHT22;3178;48.730;8.990;2022-12-24T15:35:29;10.40;99.90
6291;DHT22;3178;48.730;8.990;2022-12-24T15:37:57;10.30;99.90
6291;DHT22;3178;48.730;8.990;2022-12-24T15:40:24;10.30;99.90
6291;DHT22;3178;48.730;8.990;2022-12-24T15:42:50;10.20;99.90
6291;DHT22;3178;48.730;8.990;2022-12-24T15:45:23;10.20;99.90
6291;DHT22;3178;48.730;8.990;2022-12-24T15:47:58;10.20;99.90
6291;DHT22;3178;48.730;8.990;2022-12-24T15:50:35;10.10;99.90
6291;DHT22;3178;48.730;8.990;2022-12-24T15:53:04;10.00;99.90
6291;DHT22;3178;48.730;8.990;2022-12-24T15:55:39;10.00;99.90
6291;DHT22;3178;48.730;8.990;2022-12-24T15:58:41;9.90;99.90
6291;DHT22;3178;48.730;8.990;2022-12-24T16:03:40;9.80;99.90
6291;DHT22;3178;48.730;8.990;2022-12-24T16:06:19;9.70;99.90
6291;DHT22;3178;48.730;8.990;2022-12-24T16:08:46;9.60;99.90
6291;DHT22;3178;48.730;8.990;2022-12-24T16:11:15;9.60;99.90
6291;DHT22;3178;48.730;8.990;2022-12-24T16:14:06;9.50;99.90
6291;DHT22;3178;48.730;8.990;2022-12-24T16:16:42;9.50;99.90
6291;DHT22;3178;48.730;8.990;2022-12-24T16:21:52;9.40;99.90
6291;DHT22;3178;48.730;8.990;2022-12-24T16:24:22;9.40;99.90
6291;DHT22;3178;48.730;8.990;2022-12-24T16:26:49;9.40;99.90
6291;DHT22;3178;48.730;8.990;2022-12-24T16:29:16;9.30;99.90
6291;DHT22;3178;48.730;8.990;2022-12-24T16:31:46;9.30;99.90
6291;DHT22;3178;48.730;8.990;2022-12-24T16:34:14;9.30;99.90
6291;DHT22;3178;48.730;8.990;2022-12-24T16:36:40;9.30;99.90
6291;DHT22;3178;48.730;8.990;2022-12-24T16:39:17;9.20;99.90
6291;DHT22;3178;48.730;8.990;2022-12-24T16:41:54;9.20;99.90
6291;DHT22;3178;48.730;8.990;2022-12-24T16:44:39;9.20;99.90
6291;DHT22;3178;48.730;8.990;2022-12-24T16:47:09;9.20;99.90
6291;DHT22;3178;48.730;8.990;2022-12-24T16:49:37;9.20;99.90
6291;DHT22;3178;48.730;8.990;2022-12-24T16:52:04;9.20;99.90
6291;DHT22;3178;48.730;8.990;2022-12-24T16:54:29;9.30;99.90
6291;DHT22;3178;48.730;8.990;2022-12-24T16:56:55;9.30;99.90
6291;DHT22;3178;48.730;8.990;2022-12-24T16:59:22;9.30;99.90
6291;DHT22;3178;48.730;8.990;2022-12-24T17:01:48;9.30;99.90
6291;DHT22;3178;48.730;8.990;2022-12-24T17:04:15;9.30;99.90
6291;DHT22;3178;48.730;8.990;2022-12-24T17:06:40;9.30;99.90
6291;DHT22;3178;48.730;8.990;2022-12-24T17:09:07;9.30;99.90
6291;DHT22;3178;48.730;8.990;2022-12-24T17:11:33;9.30;99.90
6291;DHT22;3178;48.730;8.990;2022-12-24T17:13:59;9.30;99.90
6291;DHT22;3178;48.730;8.990;2022-12-24T17:16:24;9.30;99.90
6291;DHT22;3178;48.730;8.990;2022-12-24T17:18:50;9.30;99.90
6291;DHT22;3178;48.730;8.990;2022-12-24T17:21:17;9.30;99.90
6291;DHT22;3178;48.730;8.990;2022-12-24T17:23:42;9.30;99.90
6291;DHT22;3178;48.730;8.990;2022-12-24T17:26:12;9.30;99.90
6291;DHT22;3178;48.730;8.990;2022-12-24T17:28:38;9.40;99.90
6291;DHT22;3178;48.730;8.990;2022-12-24T17:31:12;9.40;99.90
6291;DHT22;3178;48.730;8.990;2022-12-24T17:33:39;9.40;99.90
6291;DHT22;3178;48.730;8.990;2022-12-24T17:36:05;9.40;99.90
6291;DHT22;3178;48.730;8.990;2022-12-24T17:38:30;9.40;99.90
6291;DHT22;3178;48.730;8.990;2022-12-24T17:41:04;9.40;99.90
6291;DHT22;3178;48.730;8.990;2022-12-24T17:43:33;9.40;99.90
6291;DHT22;3178;48.730;8.990;2022-12-24T17:46:10;9.40;99.90
6291;DHT22;3178;48.730;8.990;2022-12-24T17:48:36;9.40;99.90
6291;DHT22;3178;48.730;8.990;2022-12-24T17:51:07;9.40;99.90
6291;DHT22;3178;48.730;8.990;2022-12-24T17:53:37;9.40;99.90
6291;DHT22;3178;48.730;8.990;2022-12-24T17:56:04;9.40;99.90
6291;DHT22;3178;48.730;8.990;2022-12-24T17:58:30;9.40;99.90
6291;DHT22;3178;48.730;8.990;2022-12-24T18:00:56;9.40;99.90
6291;DHT22;3178;48.730;8.990;2022-12-24T18:03:22;9.40;99.90
6291;DHT22;3178;48.730;8.990;2022-12-24T18:05:47;9.40;99.90
6291;DHT22;3178;48.730;8.990;2022-12-24T18:08:13;9.40;99.90
6291;DHT22;3178;48.730;8.990;2022-12-24T18:10:39;9.40;99.90
6291;DHT22;3178;48.730;8.990;2022-12-24T18:13:05;9.40;99.90
6291;DHT22;3178;48.730;8.990;2022-12-24T18:15:36;9.40;99.90
6291;DHT22;3178;48.730;8.990;2022-12-24T18:18:03;9.30;99.90
6291;DHT22;3178;48.730;8.990;2022-12-24T18:20:30;9.30;99.90
6291;DHT22;3178;48.730;8.990;2022-12-24T18:22:56;9.30;99.90
6291;DHT22;3178;48.730;8.990;2022-12-24T18:25:22;9.30;99.90
6291;DHT22;3178;48.730;8.990;2022-12-24T18:27:48;9.20;99.90